Time;durP1;ratioP1;P1;durP2;ratioP2;P2;SDS_P1;SDS_P2;PMS_P1;PMS_P2;Temp;Humidity;BMP_temperature;BMP_pressure;BME280_temperature;BME280_humidity;BME280_pressure;Samples;Min_cycle;Max_cycle;Signal;HPM_P1;HPM_P2
2024/01/16 00:00:44;;;;;;;1.30;1.30;;;;;;;;;;6135472;29;20297;-69
2024/01/16 00:03:48;;;;;;;1.20;1.20;;;;;;;;;;6136342;29;20294;-70
2024/01/16 00:06:52;;;;;;;1.10;1.10;;;;;;;;;;6136649;29;20360;-69
2024/01/16 00:09:56;;;;;;;1.00;1.00;;;;;;;;;;6140479;29;20294;-70
2024/01/16 00:13:00;;;;;;;1.50;1.50;;;;;;;;;;6159926;28;20293;-70
2024/01/16 00:16:06;;;;;;;1.20;1.20;;;;;;;;;;6159583;28;20441;-69
2024/01/16 00:19:11;;;;;;;1.30;1.30;;;;;;;;;;6157943;28;20464;-69
2024/01/16 00:22:15;;;;;;;1.60;1.50;;;;;;;;;;6159575;28;20303;-69
2024/01/16 00:25:19;;;;;;;2.63;1.30;;;;;;;;;;6158889;28;20305;-69
2024/01/16 00:28:23;;;;;;;1.00;1.00;;;;;;;;;;6159432;28;20445;-69
2024/01/16 00:31:29;;;;;;;1.80;1.40;;;;;;;;;;6158280;28;20482;-71
2024/01/16 00:34:33;;;;;;;1.23;1.10;;;;;;;;;;6135594;29;20599;-70
2024/01/16 00:37:37;;;;;;;1.30;1.30;;;;;;;;;;6136285;29;20314;-69
2024/01/16 00:40:42;;;;;;;1.30;1.30;;;;;;;;;;6135703;29;20297;-70
2024/01/16 00:43:46;;;;;;;1.00;1.00;;;;;;;;;;6125277;29;20285;-69
2024/01/16 00:46:51;;;;;;;1.50;1.10;;;;;;;;;;6118213;29;20301;-70
2024/01/16 00:49:55;;;;;;;1.90;1.17;;;;;;;;;;6135774;29;20610;-71
2024/01/16 00:52:59;;;;;;;1.20;1.20;;;;;;;;;;6135805;29;20293;-70
2024/01/16 00:56:03;;;;;;;1.00;1.00;;;;;;;;;;6136377;29;20318;-71
2024/01/16 00:59:07;;;;;;;1.20;1.20;;;;;;;;;;6135983;29;20306;-71
2024/01/16 01:02:12;;;;;;;0.90;0.90;;;;;;;;;;6134356;29;20382;-70
2024/01/16 01:05:17;;;;;;;1.17;1.17;;;;;;;;;;6135287;29;20489;-71
2024/01/16 01:08:21;;;;;;;1.00;1.00;;;;;;;;;;6124338;29;20308;-72
2024/01/16 01:11:25;;;;;;;1.20;1.20;;;;;;;;;;6150099;28;20440;-71
2024/01/16 01:14:30;;;;;;;1.33;1.10;;;;;;;;;;6159004;28;20606;-71
2024/01/16 01:17:36;;;;;;;1.07;1.07;;;;;;;;;;6148613;28;20312;-70
2024/01/16 01:20:40;;;;;;;1.23;1.23;;;;;;;;;;6159555;28;20302;-71
2024/01/16 01:23:45;;;;;;;1.20;1.20;;;;;;;;;;6158651;28;20309;-71
2024/01/16 01:26:49;;;;;;;1.03;1.03;;;;;;;;;;6159695;28;20590;-71
2024/01/16 01:29:53;;;;;;;1.20;1.20;;;;;;;;;;6158249;28;20301;-71
2024/01/16 01:32:58;;;;;;;1.10;1.10;;;;;;;;;;6149299;28;20316;-71
2024/01/16 01:36:02;;;;;;;1.10;1.10;;;;;;;;;;6140154;29;20298;-70
2024/01/16 01:39:06;;;;;;;1.10;1.10;;;;;;;;;;6139592;29;20442;-71
2024/01/16 01:42:11;;;;;;;1.00;1.00;;;;;;;;;;6140209;29;20298;-70
2024/01/16 01:45:15;;;;;;;1.00;1.00;;;;;;;;;;6111831;29;20321;-71
2024/01/16 01:48:20;;;;;;;1.10;1.10;;;;;;;;;;6138471;29;20303;-69
2024/01/16 01:51:25;;;;;;;1.33;1.10;;;;;;;;;;6139690;29;20298;-70
2024/01/16 01:54:30;;;;;;;1.00;1.00;;;;;;;;;;6139234;29;20306;-70
2024/01/16 01:57:34;;;;;;;0.97;0.97;;;;;;;;;;6139632;29;20297;-69
2024/01/16 02:00:38;;;;;;;1.07;1.03;;;;;;;;;;6139110;29;20302;-70
2024/01/16 02:03:45;;;;;;;1.00;1.00;;;;;;;;;;6138801;29;20297;-69
2024/01/16 02:06:49;;;;;;;0.97;0.97;;;;;;;;;;6138422;29;20292;-70
2024/01/16 02:09:53;;;;;;;0.90;0.90;;;;;;;;;;6142539;29;20292;-69
2024/01/16 02:12:57;;;;;;;1.23;0.97;;;;;;;;;;6148680;28;20302;-70
2024/01/16 02:16:03;;;;;;;0.97;0.97;;;;;;;;;;6139386;29;20318;-70
2024/01/16 02:19:08;;;;;;;1.03;1.03;;;;;;;;;;6138855;29;20298;-70
2024/01/16 02:22:17;;;;;;;1.10;1.10;;;;;;;;;;6137079;29;20554;-70
2024/01/16 02:25:22;;;;;;;1.07;1.07;;;;;;;;;;6157941;28;20306;-69
2024/01/16 02:28:26;;;;;;;1.43;1.00;;;;;;;;;;6161369;28;20357;-70
2024/01/16 02:31:30;;;;;;;1.00;1.00;;;;;;;;;;6161715;28;20317;-70
2024/01/16 02:34:34;;;;;;;1.00;1.00;;;;;;;;;;6162179;28;20305;-69
2024/01/16 02:37:38;;;;;;;0.90;0.90;;;;;;;;;;6159778;28;20313;-69
2024/01/16 02:40:43;;;;;;;0.90;0.90;;;;;;;;;;6162039;28;20301;-70
2024/01/16 02:43:48;;;;;;;1.00;1.00;;;;;;;;;;6157279;28;20299;-70
2024/01/16 02:46:51;;;;;;;0.90;0.90;;;;;;;;;;6162583;28;20586;-70
2024/01/16 02:49:55;;;;;;;0.90;0.90;;;;;;;;;;6161101;28;20325;-70
2024/01/16 02:52:59;;;;;;;0.97;0.97;;;;;;;;;;6161810;28;20292;-70
2024/01/16 02:56:05;;;;;;;0.80;0.80;;;;;;;;;;6162938;28;20293;-71
2024/01/16 02:59:10;;;;;;;1.03;1.03;;;;;;;;;;6161360;28;20309;-69
2024/01/16 03:02:14;;;;;;;1.07;1.07;;;;;;;;;;6161989;28;20297;-69
2024/01/16 03:05:18;;;;;;;0.90;0.90;;;;;;;;;;6161576;28;20289;-69
2024/01/16 03:08:22;;;;;;;0.90;0.90;;;;;;;;;;6160760;28;20585;-70
2024/01/16 03:11:27;;;;;;;1.23;1.23;;;;;;;;;;6161756;28;20557;-69
2024/01/16 03:14:36;;;;;;;2.57;0.80;;;;;;;;;;6161125;28;20321;-69
2024/01/16 03:17:40;;;;;;;0.93;0.93;;;;;;;;;;6161024;28;23344;-69
2024/01/16 03:20:45;;;;;;;1.00;1.00;;;;;;;;;;6161930;28;20297;-69
2024/01/16 03:23:49;;;;;;;1.30;0.90;;;;;;;;;;6160333;28;20300;-70
2024/01/16 03:26:54;;;;;;;1.10;1.00;;;;;;;;;;6151862;28;20293;-69
2024/01/16 03:29:58;;;;;;;1.00;1.00;;;;;;;;;;6160547;28;20292;-72
2024/01/16 03:33:03;;;;;;;0.93;0.93;;;;;;;;;;6160479;28;20593;-71
2024/01/16 03:36:08;;;;;;;1.00;1.00;;;;;;;;;;6161141;28;20322;-70
2024/01/16 03:39:12;;;;;;;1.07;1.07;;;;;;;;;;6161028;28;20296;-70
2024/01/16 03:42:19;;;;;;;1.10;1.10;;;;;;;;;;6161060;28;20292;-69
2024/01/16 03:45:23;;;;;;;1.10;1.10;;;;;;;;;;6159725;28;20320;-69
2024/01/16 03:48:27;;;;;;;1.00;1.00;;;;;;;;;;6160393;28;20304;-69
2024/01/16 03:51:31;;;;;;;1.23;1.23;;;;;;;;;;6160767;28;20606;-70
2024/01/16 03:54:35;;;;;;;1.10;1.07;;;;;;;;;;6159970;28;20390;-70
2024/01/16 03:57:42;;;;;;;0.97;0.97;;;;;;;;;;6160207;28;20304;-70
2024/01/16 04:00:46;;;;;;;1.07;1.07;;;;;;;;;;6160667;28;20302;-69
2024/01/16 04:03:50;;;;;;;1.03;1.03;;;;;;;;;;6154896;28;20297;-70
2024/01/16 04:06:54;;;;;;;1.10;1.10;;;;;;;;;;6160424;28;20293;-70
2024/01/16 04:09:58;;;;;;;1.03;1.00;;;;;;;;;;6159908;28;20609;-69
2024/01/16 04:13:04;;;;;;;1.10;1.10;;;;;;;;;;6148966;28;20296;-70
2024/01/16 04:16:08;;;;;;;1.00;1.00;;;;;;;;;;6160188;28;20300;-70
2024/01/16 04:19:12;;;;;;;1.10;1.10;;;;;;;;;;6160059;28;20297;-70
2024/01/16 04:22:16;;;;;;;1.10;1.00;;;;;;;;;;6159215;28;20585;-70
2024/01/16 04:25:20;;;;;;;0.90;0.90;;;;;;;;;;6158974;28;20554;-69
2024/01/16 04:28:26;;;;;;;1.10;1.00;;;;;;;;;;6160053;28;20511;-70
2024/01/16 04:31:29;;;;;;;1.00;1.00;;;;;;;;;;6160218;28;20302;-69
2024/01/16 04:34:34;;;;;;;0.93;0.93;;;;;;;;;;6159793;28;20301;-70
2024/01/16 04:37:38;;;;;;;1.10;1.10;;;;;;;;;;6159583;28;20302;-69
2024/01/16 04:40:42;;;;;;;1.00;1.00;;;;;;;;;;6160232;28;20407;-69
2024/01/16 04:43:48;;;;;;;1.20;1.20;;;;;;;;;;6159258;28;20291;-70
2024/01/16 04:46:52;;;;;;;1.60;1.10;;;;;;;;;;6159967;28;20297;-70
2024/01/16 04:49:56;;;;;;;1.10;1.10;;;;;;;;;;6156591;28;20301;-70
2024/01/16 04:53:00;;;;;;;1.00;1.00;;;;;;;;;;6159628;28;20302;-71
2024/01/16 04:56:05;;;;;;;0.93;0.93;;;;;;;;;;6160238;28;20483;-70
2024/01/16 04:59:11;;;;;;;1.10;1.10;;;;;;;;;;6159869;28;20354;-70
2024/01/16 05:02:18;;;;;;;0.93;0.93;;;;;;;;;;6159722;28;20438;-69
2024/01/16 05:05:22;;;;;;;0.93;0.93;;;;;;;;;;6157662;28;20304;-69
2024/01/16 05:08:30;;;;;;;3.53;1.10;;;;;;;;;;6163971;28;20302;-70
2024/01/16 05:11:34;;;;;;;1.00;1.00;;;;;;;;;;6164461;28;20585;-70
2024/01/16 05:14:40;;;;;;;1.10;1.10;;;;;;;;;;6164097;28;20309;-70
2024/01/16 05:17:43;;;;;;;1.00;1.00;;;;;;;;;;6163976;28;20293;-70
2024/01/16 05:20:47;;;;;;;1.20;1.20;;;;;;;;;;6164039;28;20300;-70
2024/01/16 05:23:52;;;;;;;0.90;0.90;;;;;;;;;;6163468;28;20308;-70
2024/01/16 05:26:55;;;;;;;4.77;1.00;;;;;;;;;;6163204;28;20301;-70
2024/01/16 05:30:03;;;;;;;1.27;1.27;;;;;;;;;;6163335;28;20296;-70
2024/01/16 05:33:07;;;;;;;1.00;1.00;;;;;;;;;;6145117;28;20547;-70
2024/01/16 05:36:11;;;;;;;1.00;1.00;;;;;;;;;;6139856;29;20318;-70
2024/01/16 05:39:17;;;;;;;1.10;1.10;;;;;;;;;;6139230;29;20325;-70
2024/01/16 05:42:21;;;;;;;1.10;1.10;;;;;;;;;;6140047;29;20599;-70
2024/01/16 05:45:26;;;;;;;1.07;1.07;;;;;;;;;;6138893;29;20306;-70
2024/01/16 05:48:30;;;;;;;1.10;1.10;;;;;;;;;;6138975;29;20302;-71
2024/01/16 05:51:34;;;;;;;1.10;1.10;;;;;;;;;;6140349;29;20301;-71
2024/01/16 05:54:39;;;;;;;1.30;1.30;;;;;;;;;;6137750;29;20313;-71
2024/01/16 05:57:43;;;;;;;1.10;1.10;;;;;;;;;;6139108;29;20297;-69
2024/01/16 06:00:48;;;;;;;1.97;1.17;;;;;;;;;;6139434;29;20306;-69
2024/01/16 06:03:52;;;;;;;1.17;1.17;;;;;;;;;;6138975;29;20368;-70
2024/01/16 06:06:56;;;;;;;1.00;1.00;;;;;;;;;;6122651;29;20288;-69
2024/01/16 06:10:00;;;;;;;1.10;1.10;;;;;;;;;;6140874;29;20316;-70
2024/01/16 06:13:04;;;;;;;1.10;1.10;;;;;;;;;;6162097;28;20304;-71
2024/01/16 06:16:09;;;;;;;1.20;1.20;;;;;;;;;;6162592;28;20300;-71
2024/01/16 06:19:14;;;;;;;1.00;1.00;;;;;;;;;;6159459;28;20305;-70
2024/01/16 06:22:18;;;;;;;1.17;1.17;;;;;;;;;;6144997;29;20555;-70
2024/01/16 06:25:22;;;;;;;1.17;1.00;;;;;;;;;;6162344;28;20381;-70
2024/01/16 06:28:26;;;;;;;1.10;1.10;;;;;;;;;;6160060;28;20478;-69
2024/01/16 06:31:31;;;;;;;1.30;1.20;;;;;;;;;;6160956;28;20333;-69
2024/01/16 06:34:35;;;;;;;1.20;1.20;;;;;;;;;;6136516;29;20292;-72
2024/01/16 06:37:40;;;;;;;1.07;1.07;;;;;;;;;;6138971;29;20430;-72
2024/01/16 06:40:44;;;;;;;1.13;1.13;;;;;;;;;;6138783;29;20566;-70
2024/01/16 06:43:48;;;;;;;1.20;1.20;;;;;;;;;;6138431;29;20305;-71
2024/01/16 06:46:53;;;;;;;1.20;1.20;;;;;;;;;;6138621;29;20323;-71
2024/01/16 06:49:58;;;;;;;1.20;1.20;;;;;;;;;;6138037;29;20304;-71
2024/01/16 06:53:02;;;;;;;2.43;1.30;;;;;;;;;;6137303;29;20294;-71
2024/01/16 06:56:07;;;;;;;1.20;1.20;;;;;;;;;;6138450;29;20446;-72
2024/01/16 06:59:11;;;;;;;1.20;1.20;;;;;;;;;;6138287;29;20558;-72
2024/01/16 07:02:17;;;;;;;1.40;1.10;;;;;;;;;;6138288;29;20305;-71
2024/01/16 07:05:21;;;;;;;1.20;1.20;;;;;;;;;;6134004;29;20305;-71
2024/01/16 07:08:25;;;;;;;1.33;1.23;;;;;;;;;;6137619;29;20379;-72
2024/01/16 07:11:29;;;;;;;1.17;1.17;;;;;;;;;;6151621;28;20312;-70
2024/01/16 07:14:33;;;;;;;5.13;1.27;;;;;;;;;;6161582;28;20330;-70
2024/01/16 07:17:39;;;;;;;1.33;1.33;;;;;;;;;;6143494;28;20292;-72
2024/01/16 07:20:45;;;;;;;1.00;1.00;;;;;;;;;;6159601;28;20308;-71
2024/01/16 07:23:49;;;;;;;1.90;1.30;;;;;;;;;;6161176;28;20303;-70
2024/01/16 07:26:54;;;;;;;1.10;1.10;;;;;;;;;;6162066;28;20298;-70
2024/01/16 07:29:58;;;;;;;1.20;1.20;;;;;;;;;;6160874;28;20289;-69
2024/01/16 07:33:04;;;;;;;1.10;1.10;;;;;;;;;;6145612;28;20554;-69
2024/01/16 07:36:09;;;;;;;1.30;1.30;;;;;;;;;;6137543;29;20301;-71
2024/01/16 07:39:14;;;;;;;1.40;1.40;;;;;;;;;;6136405;29;20301;-72
2024/01/16 07:42:18;;;;;;;1.20;1.20;;;;;;;;;;6136979;29;20308;-71
2024/01/16 07:45:22;;;;;;;1.30;1.30;;;;;;;;;;6136440;29;20442;-71
2024/01/16 07:48:27;;;;;;;1.60;1.60;;;;;;;;;;6134291;29;20299;-71
2024/01/16 07:51:31;;;;;;;1.37;1.27;;;;;;;;;;6136412;29;20308;-71
2024/01/16 07:54:36;;;;;;;1.10;1.10;;;;;;;;;;6136885;29;20288;-71
2024/01/16 07:57:40;;;;;;;1.30;1.30;;;;;;;;;;6136979;29;20307;-71
2024/01/16 08:00:43;;;;;;;1.20;1.20;;;;;;;;;;6136682;29;20315;-71
2024/01/16 08:03:50;;;;;;;1.20;1.20;;;;;;;;;;6136352;29;20292;-71
2024/01/16 08:06:54;;;;;;;1.40;1.40;;;;;;;;;;6137001;29;20293;-73
2024/01/16 08:09:59;;;;;;;1.40;1.30;;;;;;;;;;6127412;29;20297;-71
2024/01/16 08:13:03;;;;;;;1.30;1.30;;;;;;;;;;6159913;28;20593;-71
2024/01/16 08:16:07;;;;;;;1.63;1.63;;;;;;;;;;6143435;29;20473;-70
2024/01/16 08:19:16;;;;;;;1.30;1.30;;;;;;;;;;6159889;28;20300;-71
2024/01/16 08:22:20;;;;;;;1.10;1.10;;;;;;;;;;6159296;28;20427;-71
2024/01/16 08:25:24;;;;;;;2.37;1.20;;;;;;;;;;6159453;28;20596;-71
2024/01/16 08:28:28;;;;;;;1.27;1.27;;;;;;;;;;6159944;28;20295;-71
2024/01/16 08:31:33;;;;;;;1.73;1.50;;;;;;;;;;6158213;28;20577;-71
2024/01/16 08:34:38;;;;;;;1.20;1.20;;;;;;;;;;6136328;29;20308;-71
2024/01/16 08:37:42;;;;;;;1.30;1.30;;;;;;;;;;6136166;29;20518;-71
2024/01/16 08:40:46;;;;;;;1.10;1.10;;;;;;;;;;6136560;29;20292;-70
2024/01/16 08:43:50;;;;;;;1.40;1.40;;;;;;;;;;6140938;29;20296;-71
2024/01/16 08:46:54;;;;;;;1.43;1.23;;;;;;;;;;6140143;29;20556;-71
2024/01/16 08:50:00;;;;;;;1.50;1.50;;;;;;;;;;6122598;29;20293;-70
2024/01/16 08:53:04;;;;;;;1.37;1.37;;;;;;;;;;6138738;29;20580;-70
2024/01/16 08:56:08;;;;;;;1.20;1.20;;;;;;;;;;6141111;29;20301;-70
2024/01/16 08:59:12;;;;;;;1.40;1.30;;;;;;;;;;6140474;29;20296;-70
2024/01/16 09:02:16;;;;;;;1.33;1.33;;;;;;;;;;6140563;29;20316;-69
2024/01/16 09:05:25;;;;;;;1.53;1.50;;;;;;;;;;6140580;29;20562;-69
2024/01/16 09:08:29;;;;;;;1.40;1.40;;;;;;;;;;6139869;29;20464;-69
2024/01/16 09:11:33;;;;;;;1.10;1.10;;;;;;;;;;6158250;28;20303;-71
2024/01/16 09:14:37;;;;;;;1.37;1.37;;;;;;;;;;6164338;28;20291;-73
2024/01/16 09:17:42;;;;;;;1.40;1.40;;;;;;;;;;6161983;28;20619;-69
2024/01/16 09:20:48;;;;;;;1.30;1.30;;;;;;;;;;6152906;28;20292;-70
2024/01/16 09:23:52;;;;;;;1.30;1.30;;;;;;;;;;6163471;28;20294;-69
2024/01/16 09:26:58;;;;;;;1.53;1.53;;;;;;;;;;6164414;28;20292;-69
2024/01/16 09:30:01;;;;;;;3.30;1.30;;;;;;;;;;6163725;28;20488;-69
2024/01/16 09:33:06;;;;;;;1.30;1.30;;;;;;;;;;6149217;28;20305;-69
2024/01/16 09:36:12;;;;;;;1.30;1.30;;;;;;;;;;6140243;29;20300;-69
2024/01/16 09:39:16;;;;;;;1.40;1.40;;;;;;;;;;6141038;29;20300;-70
2024/01/16 09:42:22;;;;;;;1.40;1.40;;;;;;;;;;6141366;29;20302;-70
2024/01/16 09:45:28;;;;;;;1.37;1.03;;;;;;;;;;6140039;29;20299;-70
2024/01/16 09:48:32;;;;;;;1.50;1.40;;;;;;;;;;6137241;29;20499;-70
2024/01/16 09:51:38;;;;;;;1.60;1.30;;;;;;;;;;6116456;29;20314;-70
2024/01/16 09:54:42;;;;;;;1.90;1.20;;;;;;;;;;6115990;29;20297;-70
2024/01/16 09:57:47;;;;;;;1.40;1.40;;;;;;;;;;6115895;29;20297;-70
2024/01/16 10:00:51;;;;;;;1.63;1.60;;;;;;;;;;6116395;29;20300;-73
2024/01/16 10:03:55;;;;;;;1.40;1.40;;;;;;;;;;6115671;29;20321;-71
2024/01/16 10:07:03;;;;;;;1.30;1.30;;;;;;;;;;6116197;29;20293;-71
2024/01/16 10:10:10;;;;;;;1.30;1.30;;;;;;;;;;6127598;29;20319;-70
2024/01/16 10:13:16;;;;;;;3.40;1.80;;;;;;;;;;6163087;28;20307;-71
2024/01/16 10:16:21;;;;;;;1.60;1.50;;;;;;;;;;6162151;28;20315;-71
2024/01/16 10:19:29;;;;;;;1.40;1.40;;;;;;;;;;6162771;28;20301;-71
2024/01/16 10:22:56;;;;;;;1.67;1.67;;;;;;;;;;6160745;28;20297;-71
2024/01/16 10:26:06;;;;;;;1.50;1.50;;;;;;;;;;6163329;28;20300;-71
2024/01/16 10:29:11;;;;;;;1.40;1.40;;;;;;;;;;6145134;28;20461;-71
2024/01/16 10:32:29;;;;;;;1.60;1.60;;;;;;;;;;6137275;29;20298;-71
2024/01/16 10:35:33;;;;;;;2.57;1.40;;;;;;;;;;6135764;29;20354;-71
2024/01/16 10:38:39;;;;;;;1.50;1.50;;;;;;;;;;6137660;29;20323;-70
2024/01/16 10:41:43;;;;;;;1.40;1.40;;;;;;;;;;6121802;29;20295;-71
2024/01/16 10:44:54;;;;;;;2.03;1.93;;;;;;;;;;6138909;29;20300;-71
2024/01/16 10:48:05;;;;;;;1.43;1.43;;;;;;;;;;6137781;29;20302;-70
2024/01/16 10:51:13;;;;;;;1.30;1.30;;;;;;;;;;6137002;29;20296;-70
2024/01/16 10:54:19;;;;;;;1.63;1.57;;;;;;;;;;6110998;29;20293;-71
2024/01/16 10:57:25;;;;;;;1.70;1.60;;;;;;;;;;6138722;29;20302;-70
2024/01/16 11:00:29;;;;;;;1.60;1.50;;;;;;;;;;6137531;29;20308;-70
2024/01/16 11:03:37;;;;;;;1.30;1.30;;;;;;;;;;6137157;29;20310;-70
2024/01/16 11:06:42;;;;;;;1.90;1.80;;;;;;;;;;6138704;29;20341;-71
2024/01/16 11:09:50;;;;;;;1.50;1.50;;;;;;;;;;6121691;29;20296;-70
2024/01/16 11:12:54;;;;;;;1.50;1.50;;;;;;;;;;6161508;28;20297;-72
2024/01/16 11:15:59;;;;;;;1.50;1.50;;;;;;;;;;6145398;29;20302;-71
2024/01/16 11:19:06;;;;;;;1.50;1.50;;;;;;;;;;6161703;28;20309;-71
2024/01/16 11:22:30;;;;;;;1.53;1.53;;;;;;;;;;6161769;28;20464;-71
2024/01/16 11:25:36;;;;;;;1.60;1.60;;;;;;;;;;6159532;28;20503;-71
2024/01/16 11:28:40;;;;;;;2.10;1.50;;;;;;;;;;6161444;28;20593;-73
2024/01/16 11:31:45;;;;;;;2.50;1.63;;;;;;;;;;6140578;29;20296;-70
2024/01/16 11:34:56;;;;;;;1.63;1.60;;;;;;;;;;6137493;29;20305;-71
2024/01/16 11:38:06;;;;;;;1.50;1.50;;;;;;;;;;6136475;29;20293;-71
2024/01/16 11:41:51;;;;;;;1.40;1.40;;;;;;;;;;6138200;29;20322;-72
2024/01/16 11:44:56;;;;;;;3.40;1.40;;;;;;;;;;6117933;29;20298;-70
2024/01/16 11:48:10;;;;;;;1.70;1.70;;;;;;;;;;6110629;29;20302;-70
2024/01/16 11:51:25;;;;;;;3.70;1.50;;;;;;;;;;6120770;29;20306;-72
2024/01/16 11:54:29;;;;;;;1.77;1.73;;;;;;;;;;6118058;29;20338;-69
2024/01/16 11:57:51;;;;;;;1.77;1.70;;;;;;;;;;6135049;29;20306;-70
2024/01/16 12:00:57;;;;;;;1.60;1.60;;;;;;;;;;6136697;29;20295;-71
2024/01/16 12:04:04;;;;;;;1.63;1.63;;;;;;;;;;6136839;29;20302;-71
2024/01/16 12:07:09;;;;;;;1.50;1.50;;;;;;;;;;6136860;29;20411;-71
2024/01/16 12:10:13;;;;;;;1.53;1.40;;;;;;;;;;6141820;29;20298;-71
2024/01/16 12:13:19;;;;;;;1.40;1.40;;;;;;;;;;6160035;28;20304;-71
2024/01/16 12:16:23;;;;;;;1.30;1.30;;;;;;;;;;6160671;28;20300;-71
2024/01/16 12:19:29;;;;;;;1.53;1.43;;;;;;;;;;6160235;28;20485;-70
2024/01/16 12:22:33;;;;;;;1.70;1.47;;;;;;;;;;6142083;28;20575;-69
2024/01/16 12:25:38;;;;;;;2.67;1.53;;;;;;;;;;6160315;28;20300;-70
2024/01/16 12:29:04;;;;;;;1.43;1.30;;;;;;;;;;6141279;29;20302;-71
2024/01/16 12:32:09;;;;;;;1.17;1.17;;;;;;;;;;6152991;28;20302;-71
2024/01/16 12:35:18;;;;;;;1.37;1.17;;;;;;;;;;6135341;29;20457;-71
2024/01/16 12:38:23;;;;;;;1.53;1.53;;;;;;;;;;6127551;29;20311;-70
2024/01/16 12:41:29;;;;;;;1.50;1.20;;;;;;;;;;6136495;29;20308;-70
2024/01/16 12:44:46;;;;;;;2.80;1.47;;;;;;;;;;6124668;28;20356;-71
2024/01/16 12:47:57;;;;;;;1.30;1.30;;;;;;;;;;6124832;29;20302;-70
2024/01/16 12:51:02;;;;;;;1.40;1.30;;;;;;;;;;6136942;29;20298;-71
2024/01/16 12:54:12;;;;;;;1.20;1.20;;;;;;;;;;6118623;29;20294;-70
2024/01/16 12:57:20;;;;;;;1.30;1.30;;;;;;;;;;6136534;29;20319;-70
2024/01/16 13:00:27;;;;;;;1.40;1.30;;;;;;;;;;6135863;29;20559;-71
2024/01/16 13:03:31;;;;;;;1.30;1.30;;;;;;;;;;6135795;29;20316;-70
2024/01/16 13:06:35;;;;;;;1.30;1.30;;;;;;;;;;6134148;29;20297;-71
2024/01/16 13:09:40;;;;;;;1.30;1.30;;;;;;;;;;6137978;29;20306;-71
2024/01/16 13:12:45;;;;;;;2.63;1.40;;;;;;;;;;6159402;28;20292;-71
2024/01/16 13:15:50;;;;;;;1.30;1.30;;;;;;;;;;6158370;28;20293;-71
2024/01/16 13:19:01;;;;;;;1.40;1.40;;;;;;;;;;6142122;28;20305;-71
2024/01/16 13:22:06;;;;;;;1.33;1.33;;;;;;;;;;6158678;28;20305;-71
2024/01/16 13:25:11;;;;;;;1.70;1.30;;;;;;;;;;6158792;28;20322;-70
2024/01/16 13:28:15;;;;;;;1.20;1.20;;;;;;;;;;6160589;28;20297;-71
2024/01/16 13:31:20;;;;;;;1.57;1.47;;;;;;;;;;6163672;28;20448;-70
2024/01/16 13:34:24;;;;;;;1.13;1.13;;;;;;;;;;6139352;29;20318;-71
2024/01/16 13:37:30;;;;;;;1.20;1.20;;;;;;;;;;6140136;29;20393;-70
2024/01/16 13:40:34;;;;;;;1.10;1.10;;;;;;;;;;6139612;29;20425;-70
2024/01/16 13:43:38;;;;;;;1.00;1.00;;;;;;;;;;6139001;29;20305;-70
2024/01/16 13:46:43;;;;;;;1.10;1.10;;;;;;;;;;6139741;29;20364;-71
2024/01/16 13:50:08;;;;;;;1.30;1.30;;;;;;;;;;6121996;29;20631;-71
2024/01/16 13:53:13;;;;;;;1.13;1.13;;;;;;;;;;6122615;29;20302;-71
2024/01/16 13:56:17;;;;;;;1.47;1.37;;;;;;;;;;6139931;29;20301;-71
2024/01/16 13:59:40;;;;;;;1.40;1.40;;;;;;;;;;6138909;29;20306;-70
2024/01/16 14:02:47;;;;;;;1.30;1.30;;;;;;;;;;6139628;29;20306;-70
2024/01/16 14:05:51;;;;;;;1.40;1.40;;;;;;;;;;6139318;29;20302;-71
2024/01/16 14:08:55;;;;;;;1.13;1.13;;;;;;;;;;6139406;29;20555;-70
2024/01/16 14:11:59;;;;;;;1.20;1.20;;;;;;;;;;6159703;28;20301;-70
2024/01/16 14:15:06;;;;;;;1.20;1.20;;;;;;;;;;6145873;28;20297;-69
2024/01/16 14:18:15;;;;;;;2.60;1.40;;;;;;;;;;6162938;28;20305;-69
2024/01/16 14:21:19;;;;;;;3.30;1.30;;;;;;;;;;6145878;28;20333;-70
2024/01/16 14:24:24;;;;;;;1.20;1.20;;;;;;;;;;6161127;28;20593;-70
2024/01/16 14:27:28;;;;;;;1.43;1.40;;;;;;;;;;6163148;28;20297;-70
2024/01/16 14:30:33;;;;;;;1.67;1.57;;;;;;;;;;6145023;29;20341;-71
2024/01/16 14:33:38;;;;;;;1.40;1.40;;;;;;;;;;6143522;29;20306;-71
2024/01/16 14:36:43;;;;;;;1.40;1.40;;;;;;;;;;6139070;29;20318;-71
2024/01/16 14:39:47;;;;;;;1.30;1.30;;;;;;;;;;6136330;29;20402;-71
2024/01/16 14:42:53;;;;;;;4.00;1.40;;;;;;;;;;6137742;29;20346;-71
2024/01/16 14:45:58;;;;;;;1.30;1.30;;;;;;;;;;6138957;29;20298;-70
2024/01/16 14:49:03;;;;;;;1.30;1.30;;;;;;;;;;6137276;28;20422;-70
2024/01/16 14:52:10;;;;;;;1.47;1.37;;;;;;;;;;6137643;29;20302;-69
2024/01/16 14:55:15;;;;;;;1.10;1.10;;;;;;;;;;6137805;29;20301;-70
2024/01/16 14:58:22;;;;;;;1.30;1.30;;;;;;;;;;6137181;29;20303;-69
2024/01/16 15:01:26;;;;;;;1.20;1.20;;;;;;;;;;6137802;29;20354;-70
2024/01/16 15:04:32;;;;;;;1.53;1.40;;;;;;;;;;6137847;29;20297;-70
2024/01/16 15:07:38;;;;;;;1.60;1.60;;;;;;;;;;6137550;29;20241;-70
2024/01/16 15:10:42;;;;;;;7.63;1.60;;;;;;;;;;6138491;28;20309;-71
2024/01/16 15:13:48;;;;;;;1.47;1.47;;;;;;;;;;6144624;28;20289;-70
2024/01/16 15:16:52;;;;;;;1.90;1.80;;;;;;;;;;6161709;28;20292;-69
2024/01/16 15:19:57;;;;;;;2.67;1.87;;;;;;;;;;6143093;28;20293;-71
2024/01/16 15:23:03;;;;;;;2.20;2.00;;;;;;;;;;6161300;28;20306;-71
2024/01/16 15:26:07;;;;;;;3.07;2.10;;;;;;;;;;6160480;28;20296;-70
2024/01/16 15:29:12;;;;;;;1.67;1.67;;;;;;;;;;6161119;28;20297;-70
2024/01/16 15:32:16;;;;;;;9.20;2.10;;;;;;;;;;6152604;28;20576;-69
2024/01/16 15:35:22;;;;;;;2.73;2.10;;;;;;;;;;6137218;29;20302;-70
2024/01/16 15:38:26;;;;;;;2.10;1.87;;;;;;;;;;6136789;29;20303;-68
2024/01/16 15:41:30;;;;;;;4.60;2.07;;;;;;;;;;6110930;29;20297;-70
2024/01/16 15:44:34;;;;;;;1.80;1.80;;;;;;;;;;6137724;29;20302;-69
2024/01/16 15:47:38;;;;;;;1.90;1.80;;;;;;;;;;6137028;29;20302;-68
2024/01/16 15:50:44;;;;;;;1.77;1.77;;;;;;;;;;6137521;29;20293;-69
2024/01/16 15:53:48;;;;;;;4.93;2.00;;;;;;;;;;6136387;29;20293;-71
2024/01/16 15:56:52;;;;;;;2.63;2.43;;;;;;;;;;6136704;29;20297;-69
2024/01/16 15:59:56;;;;;;;2.07;1.80;;;;;;;;;;6136328;29;20312;-70
2024/01/16 16:03:01;;;;;;;3.60;2.33;;;;;;;;;;6136738;29;20301;-69
2024/01/16 16:06:09;;;;;;;2.00;1.90;;;;;;;;;;6135930;29;20304;-71
2024/01/16 16:09:13;;;;;;;3.00;2.00;;;;;;;;;;6111059;29;20303;-70
2024/01/16 16:12:18;;;;;;;2.50;2.30;;;;;;;;;;6159729;28;20443;-71
2024/01/16 16:15:22;;;;;;;4.83;2.33;;;;;;;;;;6160326;28;20474;-68
2024/01/16 16:18:26;;;;;;;2.00;1.90;;;;;;;;;;6160378;28;20488;-69
2024/01/16 16:21:33;;;;;;;2.40;2.30;;;;;;;;;;6161282;28;20301;-69
2024/01/16 16:24:37;;;;;;;2.07;2.00;;;;;;;;;;6160285;28;20306;-68
2024/01/16 16:27:41;;;;;;;1.90;1.90;;;;;;;;;;6160494;28;20296;-68
2024/01/16 16:30:46;;;;;;;1.80;1.80;;;;;;;;;;6142725;29;20296;-69
2024/01/16 16:33:50;;;;;;;2.10;2.00;;;;;;;;;;6139947;29;20311;-68
2024/01/16 16:36:56;;;;;;;2.23;2.13;;;;;;;;;;6136687;29;20302;-68
2024/01/16 16:39:59;;;;;;;2.67;2.57;;;;;;;;;;6136053;29;20296;-69
2024/01/16 16:43:04;;;;;;;2.60;2.60;;;;;;;;;;6136125;29;20460;-70
2024/01/16 16:46:08;;;;;;;2.97;2.50;;;;;;;;;;6119196;29;20604;-69
2024/01/16 16:49:12;;;;;;;3.30;2.80;;;;;;;;;;6119044;29;20310;-70
2024/01/16 16:52:18;;;;;;;3.00;2.70;;;;;;;;;;6135338;29;20294;-70
2024/01/16 16:55:22;;;;;;;2.13;2.10;;;;;;;;;;6109651;29;20325;-69
2024/01/16 16:58:26;;;;;;;2.50;2.40;;;;;;;;;;6109815;29;20313;-72
2024/01/16 17:01:30;;;;;;;2.77;2.67;;;;;;;;;;6127984;29;20305;-69
2024/01/16 17:04:36;;;;;;;2.40;2.30;;;;;;;;;;6140077;29;20300;-69
2024/01/16 17:07:42;;;;;;;3.13;2.40;;;;;;;;;;6139355;29;20472;-70
2024/01/16 17:10:46;;;;;;;2.43;2.33;;;;;;;;;;6146024;29;20288;-70
2024/01/16 17:13:50;;;;;;;2.70;2.60;;;;;;;;;;6163171;28;20292;-70
2024/01/16 17:16:54;;;;;;;3.03;2.73;;;;;;;;;;6165569;28;20295;-70
2024/01/16 17:19:58;;;;;;;2.73;2.60;;;;;;;;;;6163913;28;20292;-72
2024/01/16 17:23:06;;;;;;;3.23;2.87;;;;;;;;;;6164245;28;20469;-72
2024/01/16 17:26:10;;;;;;;6.43;3.30;;;;;;;;;;6164809;28;20292;-72
2024/01/16 17:29:15;;;;;;;3.30;3.10;;;;;;;;;;6163923;28;20535;-71
2024/01/16 17:32:19;;;;;;;5.83;3.10;;;;;;;;;;6163675;28;20301;-71
2024/01/16 17:35:23;;;;;;;3.20;2.77;;;;;;;;;;6163543;28;20305;-71
2024/01/16 17:38:29;;;;;;;3.33;2.90;;;;;;;;;;6163861;28;20297;-71
2024/01/16 17:41:37;;;;;;;4.10;3.70;;;;;;;;;;6162559;28;20300;-70
2024/01/16 17:44:47;;;;;;;3.70;3.50;;;;;;;;;;6164398;28;20324;-70
2024/01/16 17:47:51;;;;;;;3.80;3.27;;;;;;;;;;6153208;28;20301;-70
2024/01/16 17:50:55;;;;;;;3.50;3.03;;;;;;;;;;6162299;28;20289;-71
2024/01/16 17:54:01;;;;;;;4.87;2.90;;;;;;;;;;6164529;28;20297;-70
2024/01/16 17:57:05;;;;;;;3.83;3.40;;;;;;;;;;6163508;28;20470;-70
2024/01/16 18:00:10;;;;;;;2.90;2.70;;;;;;;;;;6150272;28;20296;-70
2024/01/16 18:03:15;;;;;;;3.23;2.67;;;;;;;;;;6161466;28;20496;-70
2024/01/16 18:06:39;;;;;;;4.43;2.90;;;;;;;;;;6162812;28;20565;-70
2024/01/16 18:09:44;;;;;;;3.53;2.60;;;;;;;;;;6161622;28;20304;-71
2024/01/16 18:12:51;;;;;;;3.07;2.73;;;;;;;;;;6153962;28;20452;-70
2024/01/16 18:15:57;;;;;;;3.00;2.80;;;;;;;;;;6140538;28;20302;-70
2024/01/16 18:19:03;;;;;;;2.60;2.43;;;;;;;;;;6140445;28;20317;-70
2024/01/16 18:22:07;;;;;;;3.13;2.97;;;;;;;;;;6140547;28;20302;-70
2024/01/16 18:25:13;;;;;;;6.63;2.80;;;;;;;;;;6138871;28;20358;-71
2024/01/16 18:28:17;;;;;;;4.83;4.10;;;;;;;;;;6139314;28;20309;-70
2024/01/16 18:31:22;;;;;;;11.73;4.83;;;;;;;;;;6139860;28;20341;-70